sensor_id;sensor_type;location;lat;lon;timestamp;temperature;humidity
31129;DHT22;17777;48.770;8.944;2023-04-25T00:01:31;15.20;45.70
31129;DHT22;17777;48.770;8.944;2023-04-25T00:04:01;15.20;45.70
31129;DHT22;17777;48.770;8.944;2023-04-25T00:06:28;15.20;45.70
31129;DHT22;17777;48.770;8.944;2023-04-25T00:08:55;15.20;45.70
31129;DHT22;17777;48.770;8.944;2023-04-25T00:11:22;15.20;45.80
31129;DHT22;17777;48.770;8.944;2023-04-25T00:13:48;15.20;45.80
31129;DHT22;17777;48.770;8.944;2023-04-25T00:16:16;15.20;45.80
31129;DHT22;17777;48.770;8.944;2023-04-25T00:18:42;15.20;45.70
31129;DHT22;17777;48.770;8.944;2023-04-25T00:21:08;15.30;45.80
31129;DHT22;17777;48.770;8.944;2023-04-25T00:23:35;15.30;45.90
31129;DHT22;17777;48.770;8.944;2023-04-25T00:26:02;15.30;45.90
31129;DHT22;17777;48.770;8.944;2023-04-25T00:28:28;15.30;45.90
31129;DHT22;17777;48.770;8.944;2023-04-25T00:30:54;15.20;45.90
31129;DHT22;17777;48.770;8.944;2023-04-25T00:33:19;15.20;45.90
31129;DHT22;17777;48.770;8.944;2023-04-25T00:35:45;15.20;45.90
31129;DHT22;17777;48.770;8.944;2023-04-25T00:38:11;15.30;46.00
31129;DHT22;17777;48.770;8.944;2023-04-25T00:40:37;15.20;46.00
31129;DHT22;17777;48.770;8.944;2023-04-25T00:43:03;15.20;46.00
31129;DHT22;17777;48.770;8.944;2023-04-25T00:45:30;15.20;46.10
31129;DHT22;17777;48.770;8.944;2023-04-25T00:47:57;15.20;46.10
31129;DHT22;17777;48.770;8.944;2023-04-25T00:50:23;15.20;46.10
31129;DHT22;17777;48.770;8.944;2023-04-25T00:52:49;15.20;46.10
31129;DHT22;17777;48.770;8.944;2023-04-25T00:55:15;15.20;46.20
31129;DHT22;17777;48.770;8.944;2023-04-25T00:57:42;15.20;46.20
31129;DHT22;17777;48.770;8.944;2023-04-25T01:00:08;15.20;46.30
31129;DHT22;17777;48.770;8.944;2023-04-25T01:02:36;15.20;46.20
31129;DHT22;17777;48.770;8.944;2023-04-25T01:05:03;15.20;46.30
31129;DHT22;17777;48.770;8.944;2023-04-25T01:07:29;15.20;47.00
31129;DHT22;17777;48.770;8.944;2023-04-25T01:09:56;15.20;46.40
31129;DHT22;17777;48.770;8.944;2023-04-25T01:12:23;15.20;46.40
31129;DHT22;17777;48.770;8.944;2023-04-25T01:14:49;15.20;46.60
31129;DHT22;17777;48.770;8.944;2023-04-25T01:17:15;15.20;46.60
31129;DHT22;17777;48.770;8.944;2023-04-25T01:19:43;15.20;46.60
31129;DHT22;17777;48.770;8.944;2023-04-25T01:22:10;15.20;46.70
31129;DHT22;17777;48.770;8.944;2023-04-25T01:24:37;15.20;46.70
31129;DHT22;17777;48.770;8.944;2023-04-25T01:27:03;15.20;46.70
31129;DHT22;17777;48.770;8.944;2023-04-25T01:29:30;15.20;46.70
31129;DHT22;17777;48.770;8.944;2023-04-25T01:31:56;15.20;46.60
31129;DHT22;17777;48.770;8.944;2023-04-25T01:34:24;15.20;46.60
31129;DHT22;17777;48.770;8.944;2023-04-25T01:36:50;15.20;46.80
31129;DHT22;17777;48.770;8.944;2023-04-25T01:39:17;15.20;46.70
31129;DHT22;17777;48.770;8.944;2023-04-25T01:41:45;15.10;46.60
31129;DHT22;17777;48.770;8.944;2023-04-25T01:44:12;15.10;46.70
31129;DHT22;17777;48.770;8.944;2023-04-25T01:46:38;15.10;46.60
31129;DHT22;17777;48.770;8.944;2023-04-25T01:49:04;15.10;46.60
31129;DHT22;17777;48.770;8.944;2023-04-25T01:51:31;15.00;46.60
31129;DHT22;17777;48.770;8.944;2023-04-25T01:53:58;15.00;46.60
31129;DHT22;17777;48.770;8.944;2023-04-25T01:56:24;15.00;46.70
31129;DHT22;17777;48.770;8.944;2023-04-25T01:58:51;15.00;46.70
31129;DHT22;17777;48.770;8.944;2023-04-25T02:01:17;15.00;46.80
31129;DHT22;17777;48.770;8.944;2023-04-25T02:03:51;15.00;46.80
31129;DHT22;17777;48.770;8.944;2023-04-25T02:06:24;15.00;46.80
31129;DHT22;17777;48.770;8.944;2023-04-25T02:08:52;15.00;46.80
31129;DHT22;17777;48.770;8.944;2023-04-25T02:11:17;15.00;46.80
31129;DHT22;17777;48.770;8.944;2023-04-25T02:13:55;15.00;46.80
31129;DHT22;17777;48.770;8.944;2023-04-25T02:16:37;15.00;46.80
31129;DHT22;17777;48.770;8.944;2023-04-25T02:19:06;15.00;46.80
31129;DHT22;17777;48.770;8.944;2023-04-25T02:21:32;15.00;46.80
31129;DHT22;17777;48.770;8.944;2023-04-25T02:24:01;15.00;46.90
31129;DHT22;17777;48.770;8.944;2023-04-25T02:26:28;15.00;46.90
31129;DHT22;17777;48.770;8.944;2023-04-25T02:28:54;14.90;46.80
31129;DHT22;17777;48.770;8.944;2023-04-25T02:31:20;14.90;46.80
31129;DHT22;17777;48.770;8.944;2023-04-25T02:33:47;14.90;46.90
31129;DHT22;17777;48.770;8.944;2023-04-25T02:36:13;14.90;46.90
31129;DHT22;17777;48.770;8.944;2023-04-25T02:38:40;14.80;46.90
31129;DHT22;17777;48.770;8.944;2023-04-25T02:41:06;14.80;47.00
31129;DHT22;17777;48.770;8.944;2023-04-25T02:43:32;14.80;47.00
31129;DHT22;17777;48.770;8.944;2023-04-25T02:45:58;14.80;47.00
31129;DHT22;17777;48.770;8.944;2023-04-25T02:48:23;14.80;47.10
31129;DHT22;17777;48.770;8.944;2023-04-25T02:50:49;14.80;47.10
31129;DHT22;17777;48.770;8.944;2023-04-25T02:53:15;14.70;47.10
31129;DHT22;17777;48.770;8.944;2023-04-25T02:55:46;14.70;47.10
31129;DHT22;17777;48.770;8.944;2023-04-25T02:58:12;14.70;47.20
31129;DHT22;17777;48.770;8.944;2023-04-25T03:00:45;14.70;47.20
31129;DHT22;17777;48.770;8.944;2023-04-25T03:03:11;14.70;47.20
31129;DHT22;17777;48.770;8.944;2023-04-25T03:05:37;14.70;47.30
31129;DHT22;17777;48.770;8.944;2023-04-25T03:08:03;14.70;47.30
31129;DHT22;17777;48.770;8.944;2023-04-25T03:10:31;14.70;47.30
31129;DHT22;17777;48.770;8.944;2023-04-25T03:13:01;14.70;47.30
31129;DHT22;17777;48.770;8.944;2023-04-25T03:15:27;14.70;47.30
31129;DHT22;17777;48.770;8.944;2023-04-25T03:17:52;14.70;47.30
31129;DHT22;17777;48.770;8.944;2023-04-25T03:20:18;14.70;47.30
31129;DHT22;17777;48.770;8.944;2023-04-25T03:22:44;14.70;47.30
31129;DHT22;17777;48.770;8.944;2023-04-25T03:25:10;14.60;47.20
31129;DHT22;17777;48.770;8.944;2023-04-25T03:27:36;14.60;47.20
31129;DHT22;17777;48.770;8.944;2023-04-25T03:30:02;14.60;47.20
31129;DHT22;17777;48.770;8.944;2023-04-25T03:32:29;14.60;47.30
31129;DHT22;17777;48.770;8.944;2023-04-25T03:34:55;14.60;47.50
31129;DHT22;17777;48.770;8.944;2023-04-25T03:37:22;14.60;47.40
31129;DHT22;17777;48.770;8.944;2023-04-25T03:39:48;14.60;47.40
31129;DHT22;17777;48.770;8.944;2023-04-25T03:42:15;14.60;47.50
31129;DHT22;17777;48.770;8.944;2023-04-25T03:44:43;14.60;47.40
31129;DHT22;17777;48.770;8.944;2023-04-25T03:47:09;14.60;47.50
31129;DHT22;17777;48.770;8.944;2023-04-25T03:49:35;14.60;47.40
31129;DHT22;17777;48.770;8.944;2023-04-25T03:52:03;14.60;47.50
31129;DHT22;17777;48.770;8.944;2023-04-25T03:54:34;14.60;47.40
31129;DHT22;17777;48.770;8.944;2023-04-25T03:57:12;14.60;47.40
31129;DHT22;17777;48.770;8.944;2023-04-25T03:59:39;14.60;47.40
31129;DHT22;17777;48.770;8.944;2023-04-25T04:02:06;14.60;47.40
31129;DHT22;17777;48.770;8.944;2023-04-25T04:04:34;14.50;47.40
31129;DHT22;17777;48.770;8.944;2023-04-25T04:07:01;14.50;47.40
31129;DHT22;17777;48.770;8.944;2023-04-25T04:09:30;14.50;47.50
31129;DHT22;17777;48.770;8.944;2023-04-25T04:11:58;14.50;47.50
31129;DHT22;17777;48.770;8.944;2023-04-25T04:14:24;14.50;47.50
31129;DHT22;17777;48.770;8.944;2023-04-25T04:16:51;14.50;47.50
31129;DHT22;17777;48.770;8.944;2023-04-25T04:19:17;14.50;47.50
31129;DHT22;17777;48.770;8.944;2023-04-25T04:21:53;14.50;47.50
31129;DHT22;17777;48.770;8.944;2023-04-25T04:24:18;14.50;47.50
31129;DHT22;17777;48.770;8.944;2023-04-25T04:26:52;14.40;47.40
31129;DHT22;17777;48.770;8.944;2023-04-25T04:29:45;14.40;47.50
31129;DHT22;17777;48.770;8.944;2023-04-25T04:32:33;14.40;47.50
31129;DHT22;17777;48.770;8.944;2023-04-25T04:35:00;14.40;47.50
31129;DHT22;17777;48.770;8.944;2023-04-25T04:37:26;14.40;47.50
31129;DHT22;17777;48.770;8.944;2023-04-25T04:39:51;14.40;47.60
31129;DHT22;17777;48.770;8.944;2023-04-25T04:42:23;14.40;47.70
31129;DHT22;17777;48.770;8.944;2023-04-25T04:44:59;14.30;47.70
31129;DHT22;17777;48.770;8.944;2023-04-25T04:47:45;14.30;47.80
31129;DHT22;17777;48.770;8.944;2023-04-25T04:50:31;14.30;47.80
31129;DHT22;17777;48.770;8.944;2023-04-25T04:53:16;14.30;47.90
31129;DHT22;17777;48.770;8.944;2023-04-25T04:55:57;14.30;47.90
31129;DHT22;17777;48.770;8.944;2023-04-25T04:58:46;14.30;47.90
31129;DHT22;17777;48.770;8.944;2023-04-25T05:01:33;14.30;47.90
31129;DHT22;17777;48.770;8.944;2023-04-25T05:04:22;14.30;47.90
31129;DHT22;17777;48.770;8.944;2023-04-25T05:07:04;14.30;47.90
31129;DHT22;17777;48.770;8.944;2023-04-25T05:09:48;14.30;48.00
31129;DHT22;17777;48.770;8.944;2023-04-25T05:12:32;14.30;47.90
31129;DHT22;17777;48.770;8.944;2023-04-25T05:15:16;14.30;47.90
31129;DHT22;17777;48.770;8.944;2023-04-25T05:17:51;14.30;47.90
31129;DHT22;17777;48.770;8.944;2023-04-25T05:20:33;14.30;48.00
31129;DHT22;17777;48.770;8.944;2023-04-25T05:23:35;14.30;48.00
31129;DHT22;17777;48.770;8.944;2023-04-25T05:26:08;14.30;48.00
31129;DHT22;17777;48.770;8.944;2023-04-25T05:28:52;14.30;47.90
31129;DHT22;17777;48.770;8.944;2023-04-25T05:31:36;14.30;47.90
31129;DHT22;17777;48.770;8.944;2023-04-25T05:34:08;14.30;47.90
31129;DHT22;17777;48.770;8.944;2023-04-25T05:36:42;14.30;48.00
31129;DHT22;17777;48.770;8.944;2023-04-25T05:39:08;14.30;48.20
31129;DHT22;17777;48.770;8.944;2023-04-25T05:41:52;14.30;47.80
31129;DHT22;17777;48.770;8.944;2023-04-25T05:44:44;14.30;47.90
31129;DHT22;17777;48.770;8.944;2023-04-25T05:47:20;14.30;47.90
31129;DHT22;17777;48.770;8.944;2023-04-25T05:50:25;14.30;47.90
31129;DHT22;17777;48.770;8.944;2023-04-25T05:53:02;14.30;47.90
31129;DHT22;17777;48.770;8.944;2023-04-25T05:55:34;14.30;48.00
31129;DHT22;17777;48.770;8.944;2023-04-25T05:58:09;14.30;48.00
31129;DHT22;17777;48.770;8.944;2023-04-25T06:00:35;14.20;48.00
31129;DHT22;17777;48.770;8.944;2023-04-25T06:03:01;14.20;48.10
31129;DHT22;17777;48.770;8.944;2023-04-25T06:05:27;14.20;48.10
31129;DHT22;17777;48.770;8.944;2023-04-25T06:07:53;14.20;48.30
31129;DHT22;17777;48.770;8.944;2023-04-25T06:10:19;14.20;49.00
31129;DHT22;17777;48.770;8.944;2023-04-25T06:12:45;14.20;48.40
31129;DHT22;17777;48.770;8.944;2023-04-25T06:15:13;14.20;48.50
31129;DHT22;17777;48.770;8.944;2023-04-25T06:17:41;14.20;48.50
31129;DHT22;17777;48.770;8.944;2023-04-25T06:20:07;14.20;48.50
31129;DHT22;17777;48.770;8.944;2023-04-25T06:22:33;14.30;48.70
31129;DHT22;17777;48.770;8.944;2023-04-25T06:24:59;14.30;48.70
31129;DHT22;17777;48.770;8.944;2023-04-25T06:27:26;14.30;48.80
31129;DHT22;17777;48.770;8.944;2023-04-25T06:29:52;14.30;48.90
31129;DHT22;17777;48.770;8.944;2023-04-25T06:32:18;14.30;48.90
31129;DHT22;17777;48.770;8.944;2023-04-25T06:34:44;14.30;49.10
31129;DHT22;17777;48.770;8.944;2023-04-25T06:37:10;14.30;49.10
31129;DHT22;17777;48.770;8.944;2023-04-25T06:39:36;14.30;49.20
31129;DHT22;17777;48.770;8.944;2023-04-25T06:42:02;14.30;49.30
31129;DHT22;17777;48.770;8.944;2023-04-25T06:44:46;14.40;49.30
31129;DHT22;17777;48.770;8.944;2023-04-25T06:47:14;14.30;49.20
31129;DHT22;17777;48.770;8.944;2023-04-25T06:49:41;14.40;49.20
31129;DHT22;17777;48.770;8.944;2023-04-25T06:52:08;14.40;49.10
31129;DHT22;17777;48.770;8.944;2023-04-25T06:54:36;14.40;49.10
31129;DHT22;17777;48.770;8.944;2023-04-25T06:57:25;14.40;49.20
31129;DHT22;17777;48.770;8.944;2023-04-25T06:59:52;14.40;49.10
31129;DHT22;17777;48.770;8.944;2023-04-25T07:02:18;14.40;49.20
31129;DHT22;17777;48.770;8.944;2023-04-25T07:04:44;14.40;49.30
31129;DHT22;17777;48.770;8.944;2023-04-25T07:07:11;14.40;49.40
31129;DHT22;17777;48.770;8.944;2023-04-25T07:09:49;14.30;49.30
31129;DHT22;17777;48.770;8.944;2023-04-25T07:12:14;14.30;49.30
31129;DHT22;17777;48.770;8.944;2023-04-25T07:14:40;14.30;49.40
31129;DHT22;17777;48.770;8.944;2023-04-25T07:17:08;14.30;49.60
31129;DHT22;17777;48.770;8.944;2023-04-25T07:19:34;14.30;49.50
31129;DHT22;17777;48.770;8.944;2023-04-25T07:22:01;14.30;49.50
31129;DHT22;17777;48.770;8.944;2023-04-25T07:24:28;14.30;49.50
31129;DHT22;17777;48.770;8.944;2023-04-25T07:26:54;14.30;49.60
31129;DHT22;17777;48.770;8.944;2023-04-25T07:29:34;14.30;49.60
31129;DHT22;17777;48.770;8.944;2023-04-25T07:32:02;14.30;49.60
31129;DHT22;17777;48.770;8.944;2023-04-25T07:34:28;14.30;49.70
31129;DHT22;17777;48.770;8.944;2023-04-25T07:36:55;14.30;49.80
31129;DHT22;17777;48.770;8.944;2023-04-25T07:39:23;14.30;49.80
31129;DHT22;17777;48.770;8.944;2023-04-25T07:41:50;14.30;50.00
31129;DHT22;17777;48.770;8.944;2023-04-25T07:44:22;14.30;50.10
31129;DHT22;17777;48.770;8.944;2023-04-25T07:46:48;14.30;50.10
31129;DHT22;17777;48.770;8.944;2023-04-25T07:49:13;14.30;50.10
31129;DHT22;17777;48.770;8.944;2023-04-25T07:51:42;14.30;50.10
31129;DHT22;17777;48.770;8.944;2023-04-25T07:54:14;14.30;50.10
31129;DHT22;17777;48.770;8.944;2023-04-25T07:56:46;14.30;50.30
31129;DHT22;17777;48.770;8.944;2023-04-25T07:59:12;14.30;50.10
31129;DHT22;17777;48.770;8.944;2023-04-25T08:01:39;14.20;50.00
31129;DHT22;17777;48.770;8.944;2023-04-25T08:04:06;14.30;50.30
31129;DHT22;17777;48.770;8.944;2023-04-25T08:06:51;14.20;50.30
31129;DHT22;17777;48.770;8.944;2023-04-25T08:09:23;14.20;50.40
31129;DHT22;17777;48.770;8.944;2023-04-25T08:11:48;14.20;50.30
31129;DHT22;17777;48.770;8.944;2023-04-25T08:14:16;14.20;51.10
31129;DHT22;17777;48.770;8.944;2023-04-25T08:16:43;14.20;50.60
31129;DHT22;17777;48.770;8.944;2023-04-25T08:19:10;14.10;50.50
31129;DHT22;17777;48.770;8.944;2023-04-25T08:21:36;14.20;50.60
31129;DHT22;17777;48.770;8.944;2023-04-25T08:24:06;14.20;50.60
31129;DHT22;17777;48.770;8.944;2023-04-25T08:26:35;14.20;50.70
31129;DHT22;17777;48.770;8.944;2023-04-25T08:29:02;14.20;50.70
31129;DHT22;17777;48.770;8.944;2023-04-25T08:31:28;14.20;50.80
31129;DHT22;17777;48.770;8.944;2023-04-25T08:33:58;14.20;50.80
31129;DHT22;17777;48.770;8.944;2023-04-25T08:36:38;14.20;50.80
31129;DHT22;17777;48.770;8.944;2023-04-25T08:39:05;14.20;50.90
31129;DHT22;17777;48.770;8.944;2023-04-25T08:41:37;14.20;50.90
31129;DHT22;17777;48.770;8.944;2023-04-25T08:44:05;14.20;51.10
31129;DHT22;17777;48.770;8.944;2023-04-25T08:46:31;14.30;51.00
31129;DHT22;17777;48.770;8.944;2023-04-25T08:49:15;14.30;51.00
31129;DHT22;17777;48.770;8.944;2023-04-25T08:51:46;14.30;50.90
31129;DHT22;17777;48.770;8.944;2023-04-25T08:54:14;14.30;51.20
31129;DHT22;17777;48.770;8.944;2023-04-25T08:56:44;14.20;50.90
31129;DHT22;17777;48.770;8.944;2023-04-25T08:59:11;14.30;51.10
31129;DHT22;17777;48.770;8.944;2023-04-25T09:01:39;14.30;51.00
31129;DHT22;17777;48.770;8.944;2023-04-25T09:04:05;14.30;50.90
31129;DHT22;17777;48.770;8.944;2023-04-25T09:06:33;14.20;50.90
31129;DHT22;17777;48.770;8.944;2023-04-25T09:09:03;14.30;51.00
31129;DHT22;17777;48.770;8.944;2023-04-25T09:11:31;14.20;51.10
31129;DHT22;17777;48.770;8.944;2023-04-25T09:14:11;14.20;51.10
31129;DHT22;17777;48.770;8.944;2023-04-25T09:19:36;14.20;50.90
31129;DHT22;17777;48.770;8.944;2023-04-25T09:22:07;14.20;51.00
31129;DHT22;17777;48.770;8.944;2023-04-25T09:24:43;14.10;50.80
31129;DHT22;17777;48.770;8.944;2023-04-25T09:27:12;14.10;51.10
31129;DHT22;17777;48.770;8.944;2023-04-25T09:29:40;14.10;50.90
31129;DHT22;17777;48.770;8.944;2023-04-25T09:34:40;14.00;51.10
31129;DHT22;17777;48.770;8.944;2023-04-25T09:37:09;13.90;50.80
31129;DHT22;17777;48.770;8.944;2023-04-25T09:39:57;13.90;50.90
31129;DHT22;17777;48.770;8.944;2023-04-25T09:42:33;13.90;51.00
31129;DHT22;17777;48.770;8.944;2023-04-25T09:45:00;13.80;50.90
31129;DHT22;17777;48.770;8.944;2023-04-25T09:47:37;13.80;51.00
31129;DHT22;17777;48.770;8.944;2023-04-25T09:50:14;13.70;51.10
31129;DHT22;17777;48.770;8.944;2023-04-25T09:52:43;13.70;51.50
31129;DHT22;17777;48.770;8.944;2023-04-25T09:55:17;13.70;51.20
31129;DHT22;17777;48.770;8.944;2023-04-25T09:57:47;13.70;51.20
31129;DHT22;17777;48.770;8.944;2023-04-25T10:00:14;13.60;51.50
31129;DHT22;17777;48.770;8.944;2023-04-25T10:02:42;13.60;51.50
31129;DHT22;17777;48.770;8.944;2023-04-25T10:05:29;13.60;51.60
31129;DHT22;17777;48.770;8.944;2023-04-25T10:07:58;13.60;51.60
31129;DHT22;17777;48.770;8.944;2023-04-25T10:10:26;13.60;51.60
31129;DHT22;17777;48.770;8.944;2023-04-25T10:12:54;13.60;51.70
31129;DHT22;17777;48.770;8.944;2023-04-25T10:15:21;13.60;51.80
31129;DHT22;17777;48.770;8.944;2023-04-25T10:17:48;13.60;51.80
31129;DHT22;17777;48.770;8.944;2023-04-25T10:20:14;13.60;51.90
31129;DHT22;17777;48.770;8.944;2023-04-25T10:22:44;13.60;52.00
31129;DHT22;17777;48.770;8.944;2023-04-25T10:25:11;13.60;52.10
31129;DHT22;17777;48.770;8.944;2023-04-25T10:27:38;13.60;52.00
31129;DHT22;17777;48.770;8.944;2023-04-25T10:30:08;13.60;52.00
31129;DHT22;17777;48.770;8.944;2023-04-25T10:32:37;13.60;52.00
31129;DHT22;17777;48.770;8.944;2023-04-25T10:35:18;13.60;51.90
31129;DHT22;17777;48.770;8.944;2023-04-25T10:38:04;13.60;52.40
31129;DHT22;17777;48.770;8.944;2023-04-25T10:40:34;13.60;52.40
31129;DHT22;17777;48.770;8.944;2023-04-25T10:43:36;13.70;52.10
31129;DHT22;17777;48.770;8.944;2023-04-25T10:46:27;13.70;52.80
31129;DHT22;17777;48.770;8.944;2023-04-25T10:49:00;13.70;52.70
31129;DHT22;17777;48.770;8.944;2023-04-25T10:54:05;13.70;52.10
31129;DHT22;17777;48.770;8.944;2023-04-25T10:56:36;13.70;52.40
31129;DHT22;17777;48.770;8.944;2023-04-25T10:59:16;13.70;52.00
31129;DHT22;17777;48.770;8.944;2023-04-25T11:01:45;13.70;52.50
31129;DHT22;17777;48.770;8.944;2023-04-25T11:04:30;13.70;52.10
31129;DHT22;17777;48.770;8.944;2023-04-25T11:07:13;13.70;52.40
31129;DHT22;17777;48.770;8.944;2023-04-25T11:09:45;13.70;52.00
31129;DHT22;17777;48.770;8.944;2023-04-25T11:12:11;13.80;51.70
31129;DHT22;17777;48.770;8.944;2023-04-25T11:14:38;13.80;51.60
31129;DHT22;17777;48.770;8.944;2023-04-25T11:17:04;13.80;51.60
31129;DHT22;17777;48.770;8.944;2023-04-25T11:19:31;13.80;51.70
31129;DHT22;17777;48.770;8.944;2023-04-25T11:22:01;13.80;51.60
31129;DHT22;17777;48.770;8.944;2023-04-25T11:24:32;13.80;51.70
31129;DHT22;17777;48.770;8.944;2023-04-25T11:27:00;13.80;51.70
31129;DHT22;17777;48.770;8.944;2023-04-25T11:29:32;13.90;51.60
31129;DHT22;17777;48.770;8.944;2023-04-25T11:31:59;13.90;51.60
31129;DHT22;17777;48.770;8.944;2023-04-25T11:34:30;13.80;51.50
31129;DHT22;17777;48.770;8.944;2023-04-25T11:36:58;13.80;51.70
31129;DHT22;17777;48.770;8.944;2023-04-25T11:39:26;13.90;51.60
31129;DHT22;17777;48.770;8.944;2023-04-25T11:41:53;13.90;51.60
31129;DHT22;17777;48.770;8.944;2023-04-25T11:44:20;13.90;51.60
31129;DHT22;17777;48.770;8.944;2023-04-25T11:46:47;13.90;51.60
31129;DHT22;17777;48.770;8.944;2023-04-25T11:49:14;13.90;51.50
31129;DHT22;17777;48.770;8.944;2023-04-25T11:51:41;13.90;51.60
31129;DHT22;17777;48.770;8.944;2023-04-25T11:54:09;13.90;51.60
31129;DHT22;17777;48.770;8.944;2023-04-25T11:56:35;13.90;51.60
31129;DHT22;17777;48.770;8.944;2023-04-25T11:59:03;13.90;52.40
31129;DHT22;17777;48.770;8.944;2023-04-25T12:01:31;13.90;51.90
31129;DHT22;17777;48.770;8.944;2023-04-25T12:03:58;13.90;52.00
31129;DHT22;17777;48.770;8.944;2023-04-25T12:06:39;13.90;51.80
31129;DHT22;17777;48.770;8.944;2023-04-25T12:09:08;14.00;51.80
31129;DHT22;17777;48.770;8.944;2023-04-25T12:11:46;14.00;51.80
31129;DHT22;17777;48.770;8.944;2023-04-25T12:14:24;13.90;52.00
31129;DHT22;17777;48.770;8.944;2023-04-25T12:16:58;14.00;52.00
31129;DHT22;17777;48.770;8.944;2023-04-25T12:19:25;13.90;51.80
31129;DHT22;17777;48.770;8.944;2023-04-25T12:21:52;13.90;51.80
31129;DHT22;17777;48.770;8.944;2023-04-25T12:24:22;13.90;51.90
31129;DHT22;17777;48.770;8.944;2023-04-25T12:26:59;14.00;51.90
31129;DHT22;17777;48.770;8.944;2023-04-25T12:29:34;14.00;52.20
31129;DHT22;17777;48.770;8.944;2023-04-25T12:32:00;14.00;52.00
31129;DHT22;17777;48.770;8.944;2023-04-25T12:34:29;14.00;52.10
31129;DHT22;17777;48.770;8.944;2023-04-25T12:36:57;14.00;52.10
31129;DHT22;17777;48.770;8.944;2023-04-25T12:39:24;14.00;52.10
31129;DHT22;17777;48.770;8.944;2023-04-25T12:41:51;14.10;52.00
31129;DHT22;17777;48.770;8.944;2023-04-25T12:44:20;14.00;52.00
31129;DHT22;17777;48.770;8.944;2023-04-25T12:46:47;14.10;52.20
31129;DHT22;17777;48.770;8.944;2023-04-25T12:49:13;14.10;52.30
31129;DHT22;17777;48.770;8.944;2023-04-25T12:51:40;14.20;52.30
31129;DHT22;17777;48.770;8.944;2023-04-25T12:54:07;14.20;52.20
31129;DHT22;17777;48.770;8.944;2023-04-25T12:56:34;14.30;52.40
31129;DHT22;17777;48.770;8.944;2023-04-25T12:59:00;14.30;52.40
31129;DHT22;17777;48.770;8.944;2023-04-25T13:01:28;14.30;52.40
31129;DHT22;17777;48.770;8.944;2023-04-25T13:03:54;14.40;52.60
31129;DHT22;17777;48.770;8.944;2023-04-25T13:06:21;14.40;52.60
31129;DHT22;17777;48.770;8.944;2023-04-25T13:08:47;14.40;52.40
31129;DHT22;17777;48.770;8.944;2023-04-25T13:11:13;14.50;52.50
31129;DHT22;17777;48.770;8.944;2023-04-25T13:13:43;14.50;52.50
31129;DHT22;17777;48.770;8.944;2023-04-25T13:16:09;14.50;52.30
31129;DHT22;17777;48.770;8.944;2023-04-25T13:18:35;14.50;52.30
31129;DHT22;17777;48.770;8.944;2023-04-25T13:21:01;14.60;52.20
31129;DHT22;17777;48.770;8.944;2023-04-25T13:23:29;14.60;52.10
31129;DHT22;17777;48.770;8.944;2023-04-25T13:25:56;14.60;52.10
31129;DHT22;17777;48.770;8.944;2023-04-25T13:28:26;14.60;52.00
31129;DHT22;17777;48.770;8.944;2023-04-25T13:30:52;14.70;52.10
31129;DHT22;17777;48.770;8.944;2023-04-25T13:33:18;14.70;52.10
31129;DHT22;17777;48.770;8.944;2023-04-25T13:35:46;14.70;52.10
31129;DHT22;17777;48.770;8.944;2023-04-25T13:38:20;14.70;52.10
31129;DHT22;17777;48.770;8.944;2023-04-25T13:40:46;14.80;52.00
31129;DHT22;17777;48.770;8.944;2023-04-25T13:43:12;14.80;51.90
31129;DHT22;17777;48.770;8.944;2023-04-25T13:45:39;14.90;51.90
31129;DHT22;17777;48.770;8.944;2023-04-25T13:48:05;14.90;51.80
31129;DHT22;17777;48.770;8.944;2023-04-25T13:50:31;14.90;51.90
31129;DHT22;17777;48.770;8.944;2023-04-25T13:52:57;15.00;52.10
31129;DHT22;17777;48.770;8.944;2023-04-25T13:55:23;15.10;52.10
31129;DHT22;17777;48.770;8.944;2023-04-25T13:57:48;15.10;52.10
31129;DHT22;17777;48.770;8.944;2023-04-25T14:00:14;15.20;52.00
31129;DHT22;17777;48.770;8.944;2023-04-25T14:02:41;15.30;52.00
31129;DHT22;17777;48.770;8.944;2023-04-25T14:05:07;15.30;51.90
31129;DHT22;17777;48.770;8.944;2023-04-25T14:07:34;15.40;51.90
31129;DHT22;17777;48.770;8.944;2023-04-25T14:10:00;15.50;51.80
31129;DHT22;17777;48.770;8.944;2023-04-25T14:12:26;15.50;51.60
31129;DHT22;17777;48.770;8.944;2023-04-25T14:14:52;15.60;51.60
31129;DHT22;17777;48.770;8.944;2023-04-25T14:17:21;15.70;51.50
31129;DHT22;17777;48.770;8.944;2023-04-25T14:19:47;15.80;51.30
31129;DHT22;17777;48.770;8.944;2023-04-25T14:22:15;15.80;51.20
31129;DHT22;17777;48.770;8.944;2023-04-25T14:24:41;15.90;51.10
31129;DHT22;17777;48.770;8.944;2023-04-25T14:27:07;15.90;50.90
31129;DHT22;17777;48.770;8.944;2023-04-25T14:29:33;16.00;50.80
31129;DHT22;17777;48.770;8.944;2023-04-25T14:31:59;16.00;50.60
31129;DHT22;17777;48.770;8.944;2023-04-25T14:34:25;16.00;50.40
31129;DHT22;17777;48.770;8.944;2023-04-25T14:36:52;16.00;50.20
31129;DHT22;17777;48.770;8.944;2023-04-25T14:39:18;16.10;50.10
31129;DHT22;17777;48.770;8.944;2023-04-25T14:41:44;16.10;49.90
31129;DHT22;17777;48.770;8.944;2023-04-25T14:44:10;16.10;49.60
31129;DHT22;17777;48.770;8.944;2023-04-25T14:46:36;16.10;49.70
31129;DHT22;17777;48.770;8.944;2023-04-25T14:49:03;16.10;49.70
31129;DHT22;17777;48.770;8.944;2023-04-25T14:51:29;16.10;49.70
31129;DHT22;17777;48.770;8.944;2023-04-25T14:53:56;16.10;49.60
31129;DHT22;17777;48.770;8.944;2023-04-25T14:56:23;16.10;50.10
31129;DHT22;17777;48.770;8.944;2023-04-25T14:58:49;16.20;49.40
31129;DHT22;17777;48.770;8.944;2023-04-25T15:01:15;16.20;49.40
31129;DHT22;17777;48.770;8.944;2023-04-25T15:03:41;16.20;49.30
31129;DHT22;17777;48.770;8.944;2023-04-25T15:06:07;16.20;49.10
31129;DHT22;17777;48.770;8.944;2023-04-25T15:08:33;16.20;49.00
31129;DHT22;17777;48.770;8.944;2023-04-25T15:10:59;16.20;48.90
31129;DHT22;17777;48.770;8.944;2023-04-25T15:13:25;16.30;48.90
31129;DHT22;17777;48.770;8.944;2023-04-25T15:15:52;16.20;48.60
31129;DHT22;17777;48.770;8.944;2023-04-25T15:18:21;16.30;48.80
31129;DHT22;17777;48.770;8.944;2023-04-25T15:20:48;16.30;48.80
31129;DHT22;17777;48.770;8.944;2023-04-25T15:23:14;16.30;48.80
31129;DHT22;17777;48.770;8.944;2023-04-25T15:25:40;16.30;48.70
31129;DHT22;17777;48.770;8.944;2023-04-25T15:28:05;16.30;49.20
31129;DHT22;17777;48.770;8.944;2023-04-25T15:30:31;16.40;48.50
31129;DHT22;17777;48.770;8.944;2023-04-25T15:32:57;16.40;48.40
31129;DHT22;17777;48.770;8.944;2023-04-25T15:35:23;16.40;48.40
31129;DHT22;17777;48.770;8.944;2023-04-25T15:37:48;16.40;48.40
31129;DHT22;17777;48.770;8.944;2023-04-25T15:40:16;16.40;48.40
31129;DHT22;17777;48.770;8.944;2023-04-25T15:42:47;16.40;48.20
31129;DHT22;17777;48.770;8.944;2023-04-25T15:45:19;16.40;48.10
31129;DHT22;17777;48.770;8.944;2023-04-25T15:47:46;16.40;48.10
31129;DHT22;17777;48.770;8.944;2023-04-25T15:50:13;16.40;48.10
31129;DHT22;17777;48.770;8.944;2023-04-25T15:52:40;16.40;47.90